createdAt,value
2024-02-05T00:00:12.516Z,101293.75
2024-02-05T00:02:41.202Z,101288.94
2024-02-05T00:05:11.702Z,101287.06
2024-02-05T00:07:40.111Z,101287.88
2024-02-05T00:10:09.560Z,101276.56
2024-02-05T00:12:37.748Z,101284.81
2024-02-05T00:15:06.682Z,101276.00
2024-02-05T00:17:34.743Z,101283.94
2024-02-05T00:20:02.893Z,101274.81
2024-02-05T00:22:32.526Z,101280.16
2024-02-05T00:25:00.349Z,101272.06
2024-02-05T00:27:28.182Z,101278.09
2024-02-05T00:29:55.893Z,101284.63
2024-02-05T00:32:23.665Z,101275.66
2024-02-05T00:34:51.687Z,101277.75
2024-02-05T00:37:19.430Z,101271.03
2024-02-05T00:39:48.642Z,101269.81
2024-02-05T00:42:16.295Z,101277.56
2024-02-05T00:44:44.157Z,101276.72
2024-02-05T00:47:11.841Z,101269.81
2024-02-05T00:49:39.673Z,101272.25
2024-02-05T00:52:07.570Z,101269.81
2024-02-05T00:54:35.485Z,101257.41
2024-02-05T00:57:04.908Z,101254.81
2024-02-05T00:59:33.027Z,101262.78
2024-02-05T01:02:00.936Z,101276.56
2024-02-05T01:04:31.805Z,101272.56
2024-02-05T01:06:59.738Z,101277.06
2024-02-05T01:09:27.561Z,101278.06
2024-02-05T01:11:55.281Z,101270.69
2024-02-05T01:14:24.681Z,101263.78
2024-02-05T01:16:52.541Z,101272.91
2024-02-05T01:19:20.406Z,101265.84
2024-02-05T01:21:48.416Z,101267.91
2024-02-05T01:24:16.198Z,101272.56
2024-02-05T01:26:43.926Z,101274.28
2024-02-05T01:29:11.743Z,101276.69
2024-02-05T01:31:44.894Z,101254.66
2024-02-05T01:34:13.466Z,101282.03
2024-02-05T01:36:41.330Z,101285.47
2024-02-05T01:39:09.336Z,101251.72
2024-02-05T01:41:37.364Z,101272.75
2024-02-05T01:44:05.511Z,101263.94
2024-02-05T01:46:37.011Z,101283.94
2024-02-05T01:49:08.966Z,101257.44
2024-02-05T01:51:40.543Z,101272.56
2024-02-05T01:54:13.445Z,101258.78
2024-02-05T01:56:41.248Z,101258.44
2024-02-05T01:59:09.462Z,101262.25
2024-02-05T02:01:41.383Z,101269.81
2024-02-05T02:04:11.380Z,101257.41
2024-02-05T02:06:41.220Z,101265.50
2024-02-05T02:09:12.251Z,101249.88
2024-02-05T02:11:41.111Z,101254.13
2024-02-05T02:14:09.221Z,101243.13
2024-02-05T02:16:37.381Z,101241.91
2024-02-05T02:19:15.678Z,101247.59
2024-02-05T02:21:44.374Z,101253.09
2024-02-05T02:24:13.963Z,101243.81
2024-02-05T02:26:41.663Z,101261.91
2024-02-05T02:29:09.464Z,101265.00
2024-02-05T02:31:39.114Z,101248.97
2024-02-05T02:34:12.629Z,101244.69
2024-02-05T02:36:51.785Z,101260.34
2024-02-05T02:39:25.515Z,101240.38
2024-02-05T02:41:58.250Z,101246.56
2024-02-05T02:44:27.513Z,101249.31
2024-02-05T02:46:59.877Z,101254.84
2024-02-05T02:49:28.031Z,101241.91
2024-02-05T02:51:55.958Z,101247.78
2024-02-05T02:54:25.237Z,101249.69
2024-02-05T02:56:53.572Z,101248.81
2024-02-05T02:59:21.423Z,101250.88
2024-02-05T03:01:49.556Z,101261.19
2024-02-05T03:04:17.585Z,101250.19
2024-02-05T03:06:45.579Z,101264.31
2024-02-05T03:09:13.476Z,101254.66
2024-02-05T03:11:42.599Z,101259.66
2024-02-05T03:14:10.429Z,101243.63
2024-02-05T03:16:38.176Z,101260.84
2024-02-05T03:19:06.057Z,101249.47
2024-02-05T03:21:33.893Z,101252.03
2024-02-05T03:24:02.239Z,101268.41
2024-02-05T03:26:30.057Z,101268.00
2024-02-05T03:28:59.170Z,101268.84
2024-02-05T03:31:27.400Z,101272.50
2024-02-05T03:33:55.234Z,101267.16
2024-02-05T03:36:22.953Z,101282.13
2024-02-05T03:38:50.678Z,101260.94
2024-02-05T03:41:18.788Z,101282.16
2024-02-05T03:43:48.278Z,101277.13
2024-02-05T03:46:17.669Z,101286.06
2024-02-05T03:48:51.840Z,101276.16
2024-02-05T03:51:19.905Z,101268.69
2024-02-05T03:53:47.674Z,101261.56
2024-02-05T03:56:15.431Z,101270.72
2024-02-05T03:58:43.244Z,101269.66
2024-02-05T04:01:11.084Z,101264.50
2024-02-05T04:03:41.062Z,101265.00
2024-02-05T04:06:09.269Z,101270.84
2024-02-05T04:08:37.002Z,101270.50
2024-02-05T04:11:05.020Z,101267.25
2024-02-05T04:13:32.703Z,101274.44
2024-02-05T04:16:00.458Z,101277.81
2024-02-05T04:18:28.218Z,101270.84
2024-02-05T04:20:58.465Z,101281.84
2024-02-05T04:23:28.768Z,101279.22
2024-02-05T04:25:56.744Z,101279.19
2024-02-05T04:28:24.541Z,101285.03
2024-02-05T04:30:52.306Z,101285.38
2024-02-05T04:33:19.987Z,101281.63
2024-02-05T04:35:48.349Z,101283.63
2024-02-05T04:38:17.535Z,101284.34
2024-02-05T04:40:45.652Z,101276.94
2024-02-05T04:43:13.321Z,101287.59
2024-02-05T04:45:41.137Z,101290.19
2024-02-05T04:48:09.000Z,101286.59
2024-02-05T04:50:36.934Z,101282.41
2024-02-05T04:53:04.895Z,101276.44
2024-02-05T04:55:33.984Z,101289.13
2024-02-05T04:58:01.904Z,101286.03
2024-02-05T05:00:29.714Z,101289.63
2024-02-05T05:02:57.482Z,101281.91
2024-02-05T05:05:25.399Z,101289.31
2024-02-05T05:07:53.322Z,101275.22
2024-02-05T05:10:21.078Z,101289.94
2024-02-05T05:12:50.337Z,101283.59
2024-02-05T05:15:18.783Z,101292.22
2024-02-05T05:17:47.206Z,101273.88
2024-02-05T05:20:15.243Z,101261.97
2024-02-05T05:22:42.951Z,101279.50
2024-02-05T05:25:11.597Z,101275.50
2024-02-05T05:27:39.414Z,101273.94
2024-02-05T05:30:10.468Z,101265.69
2024-02-05T05:32:38.244Z,101275.00
2024-02-05T05:35:10.669Z,101262.34
2024-02-05T05:37:41.365Z,101271.63
2024-02-05T05:40:11.190Z,101254.56
2024-02-05T05:42:39.985Z,101266.63
2024-02-05T05:45:09.894Z,101254.78
2024-02-05T05:47:37.799Z,101261.53
2024-02-05T05:50:06.933Z,101258.06
2024-02-05T05:52:37.210Z,101274.78
2024-02-05T05:55:07.688Z,101269.94
2024-02-05T05:57:35.664Z,101281.38
2024-02-05T06:00:06.472Z,101272.09
2024-02-05T06:02:35.674Z,101277.38
2024-02-05T06:05:09.499Z,101264.63
2024-02-05T06:07:38.888Z,101270.16
2024-02-05T06:10:08.345Z,101271.69
2024-02-05T06:12:36.171Z,101261.00
2024-02-05T06:15:04.413Z,101280.06
2024-02-05T06:17:32.943Z,101272.38
2024-02-05T06:20:02.399Z,101267.56
2024-02-05T06:22:30.534Z,101264.63
2024-02-05T06:24:58.378Z,101276.88
2024-02-05T06:27:26.187Z,101266.06
2024-02-05T06:29:54.278Z,101282.56
2024-02-05T06:32:22.071Z,101271.59
2024-02-05T06:34:51.639Z,101280.31
2024-02-05T06:37:21.312Z,101277.47
2024-02-05T06:39:49.358Z,101271.38
2024-02-05T06:42:17.304Z,101279.00
2024-02-05T06:44:46.631Z,101281.53
2024-02-05T06:47:14.508Z,101295.53
2024-02-05T06:49:42.255Z,101279.34
2024-02-05T06:52:10.149Z,101291.84
2024-02-05T06:54:39.342Z,101292.38
2024-02-05T06:57:07.082Z,101301.97
2024-02-05T06:59:34.936Z,101296.25
2024-02-05T07:02:02.937Z,101284.41
2024-02-05T07:04:31.065Z,101285.06
2024-02-05T07:06:58.963Z,101281.75
2024-02-05T07:09:27.416Z,101305.84
2024-02-05T07:11:56.628Z,101306.53
2024-02-05T07:14:24.330Z,101300.78
2024-02-05T07:16:52.241Z,101306.75
2024-02-05T07:19:20.078Z,101298.03
2024-02-05T07:21:48.026Z,101289.44
2024-02-05T07:24:15.714Z,101307.25
2024-02-05T07:26:43.522Z,101301.63
2024-02-05T07:29:12.553Z,101304.03
2024-02-05T07:31:40.394Z,101284.41
2024-02-05T07:34:08.354Z,101282.59
2024-02-05T07:36:36.184Z,101286.34
2024-02-05T07:39:07.575Z,101288.91
2024-02-05T07:41:35.339Z,101285.63
2024-02-05T07:44:03.484Z,101280.28
2024-02-05T07:46:33.032Z,101276.31
2024-02-05T07:49:00.965Z,101284.38
2024-02-05T07:51:28.866Z,101297.09
2024-02-05T07:53:56.741Z,101286.06
2024-02-05T07:56:24.487Z,101295.94
2024-02-05T07:58:52.265Z,101296.56
2024-02-05T08:01:20.328Z,101292.97
2024-02-05T08:03:54.540Z,101306.06
2024-02-05T08:06:23.501Z,101295.38
2024-02-05T08:08:51.944Z,101297.25
2024-02-05T08:11:21.182Z,101310.38
2024-02-05T08:13:49.195Z,101301.38
2024-02-05T08:16:17.274Z,101295.84
2024-02-05T08:18:45.330Z,101318.59
2024-02-05T08:21:14.729Z,101324.06
2024-02-05T08:23:42.664Z,101322.69
2024-02-05T08:26:13.093Z,101306.06
2024-02-05T08:28:42.311Z,101330.28
2024-02-05T08:31:10.321Z,101345.56
2024-02-05T08:33:38.404Z,101334.91
2024-02-05T08:36:06.985Z,101328.06
2024-02-05T08:38:36.144Z,101322.16
2024-02-05T08:41:04.528Z,101307.94
2024-02-05T08:43:32.302Z,101319.09
2024-02-05T08:46:00.039Z,101310.97
2024-02-05T08:48:28.394Z,101314.97
2024-02-05T08:50:57.159Z,101314.50
2024-02-05T08:53:25.750Z,101304.66
2024-02-05T08:55:55.851Z,101312.34
2024-02-05T08:58:24.199Z,101321.69
2024-02-05T09:00:53.001Z,101315.13
2024-02-05T09:03:23.618Z,101329.38
2024-02-05T09:05:53.141Z,101313.00
2024-02-05T09:08:21.660Z,101304.56
2024-02-05T09:10:49.440Z,101305.38
2024-02-05T09:13:19.565Z,101299.13
2024-02-05T09:15:47.456Z,101303.22
2024-02-05T09:18:15.401Z,101318.25
2024-02-05T09:20:45.997Z,101309.38
2024-02-05T09:23:13.816Z,101316.97
2024-02-05T09:25:41.624Z,101309.28
2024-02-05T09:28:11.400Z,101324.03
2024-02-05T09:30:41.268Z,101294.97
2024-02-05T09:33:09.678Z,101315.78
2024-02-05T09:35:37.552Z,101315.56
2024-02-05T09:38:08.482Z,101316.63
2024-02-05T09:40:37.873Z,101342.09
2024-02-05T09:43:07.087Z,101307.84
2024-02-05T09:45:38.274Z,101317.31
2024-02-05T09:48:10.471Z,101309.19
2024-02-05T09:50:40.842Z,101311.84
2024-02-05T09:53:10.559Z,101313.88
2024-02-05T09:55:40.436Z,101326.28
2024-02-05T09:58:08.602Z,101315.63
2024-02-05T10:00:36.462Z,101314.97
2024-02-05T10:03:05.956Z,101325.44
2024-02-05T10:05:37.622Z,101317.34
2024-02-05T10:08:07.957Z,101319.56
2024-02-05T10:10:38.105Z,101318.31
2024-02-05T10:13:06.873Z,101317.19
2024-02-05T10:15:35.053Z,101315.81
2024-02-05T10:18:03.168Z,101321.53
2024-02-05T10:20:34.195Z,101308.78
2024-02-05T10:23:03.464Z,101312.41
2024-02-05T10:25:31.267Z,101317.50
2024-02-05T10:28:04.004Z,101325.06
2024-02-05T10:30:32.023Z,101311.47
2024-02-05T10:33:00.572Z,101306.06
2024-02-05T10:35:29.874Z,101313.78
2024-02-05T10:38:09.923Z,101300.16
2024-02-05T10:40:39.041Z,101325.22
2024-02-05T10:43:10.096Z,101322.25
2024-02-05T10:45:40.337Z,101332.44
2024-02-05T10:48:09.113Z,101348.06
2024-02-05T10:50:37.277Z,101337.06
2024-02-05T10:53:06.855Z,101342.81
2024-02-05T10:55:37.913Z,101331.66
2024-02-05T10:58:06.754Z,101325.06
2024-02-05T11:00:34.502Z,101341.06
2024-02-05T11:03:07.372Z,101336.31
2024-02-05T11:05:36.529Z,101335.59
2024-02-05T11:08:10.687Z,101320.97
2024-02-05T11:10:45.624Z,101323.97
2024-02-05T11:13:20.925Z,101329.63
2024-02-05T11:15:50.452Z,101332.72
2024-02-05T11:18:22.969Z,101327.03
2024-02-05T11:20:51.812Z,101344.91
2024-02-05T11:23:21.400Z,101320.91
2024-02-05T11:25:50.692Z,101327.06
2024-02-05T11:28:19.020Z,101314.13
2024-02-05T11:30:47.365Z,101325.28
2024-02-05T11:33:26.328Z,101318.25
2024-02-05T11:35:57.248Z,101313.84
2024-02-05T11:38:25.427Z,101325.22
2024-02-05T11:40:55.311Z,101328.31
2024-02-05T11:43:25.167Z,101321.63
2024-02-05T11:45:54.917Z,101338.25
2024-02-05T11:48:24.280Z,101329.16
2024-02-05T11:50:52.613Z,101332.75
2024-02-05T11:53:22.796Z,101331.75
2024-02-05T11:55:50.886Z,101329.16
2024-02-05T11:58:20.213Z,101331.53
2024-02-05T12:00:48.292Z,101326.94
2024-02-05T12:03:16.585Z,101328.25
2024-02-05T12:05:45.447Z,101316.56
2024-02-05T12:08:14.908Z,101320.53
2024-02-05T12:10:43.312Z,101322.31
2024-02-05T12:13:11.334Z,101313.69
2024-02-05T12:15:41.509Z,101319.06
2024-02-05T12:18:09.449Z,101308.34
2024-02-05T12:20:37.619Z,101316.59
2024-02-05T12:23:06.062Z,101299.25
2024-02-05T12:25:41.299Z,101303.50
2024-02-05T12:28:14.957Z,101300.06
2024-02-05T12:30:44.434Z,101279.25
2024-02-05T12:33:16.453Z,101287.50
2024-02-05T12:35:44.462Z,101295.56
2024-02-05T12:38:12.375Z,101288.69
2024-02-05T12:40:40.449Z,101280.91
2024-02-05T12:43:08.324Z,101287.50
2024-02-05T12:45:36.739Z,101282.88
2024-02-05T12:48:07.610Z,101274.63
2024-02-05T12:50:38.669Z,101282.66
2024-02-05T12:53:06.437Z,101276.78
2024-02-05T12:55:35.922Z,101287.47
2024-02-05T12:58:04.412Z,101281.97
2024-02-05T13:00:32.302Z,101281.94
2024-02-05T13:03:03.946Z,101276.97
2024-02-05T13:05:33.853Z,101280.75
2024-02-05T13:08:02.862Z,101285.56
2024-02-05T13:10:31.013Z,101279.00
2024-02-05T13:12:59.537Z,101284.34
2024-02-05T13:15:27.888Z,101273.13
2024-02-05T13:17:56.576Z,101277.13
2024-02-05T13:20:24.548Z,101277.06
2024-02-05T13:22:54.279Z,101284.19
2024-02-05T13:25:23.764Z,101280.03
2024-02-05T13:27:51.779Z,101269.88
2024-02-05T13:30:19.594Z,101272.47
2024-02-05T13:32:47.460Z,101257.66
2024-02-05T13:35:15.731Z,101256.75
2024-02-05T13:37:43.635Z,101254.75
2024-02-05T13:40:14.588Z,101259.56
2024-02-05T13:42:48.329Z,101249.41
2024-02-05T13:45:17.159Z,101253.50
2024-02-05T13:47:45.681Z,101241.81
2024-02-05T13:50:13.749Z,101251.78
2024-02-05T13:52:41.839Z,101235.06
2024-02-05T13:55:11.393Z,101237.78
2024-02-05T13:57:40.737Z,101240.75
2024-02-05T14:00:10.393Z,101234.41
2024-02-05T14:02:41.921Z,101226.44
2024-02-05T14:05:11.164Z,101230.56
2024-02-05T14:07:39.801Z,101224.53
2024-02-05T14:10:09.156Z,101216.78
2024-02-05T14:12:37.128Z,101217.63
2024-02-05T14:15:07.476Z,101220.69
2024-02-05T14:17:35.407Z,101226.19
2024-02-05T14:20:05.701Z,101214.69
2024-02-05T14:22:33.591Z,101222.94
2024-02-05T14:25:01.459Z,101226.03
2024-02-05T14:27:29.629Z,101219.22
2024-02-05T14:29:57.473Z,101229.16
2024-02-05T14:32:26.769Z,101239.81
2024-02-05T14:34:55.026Z,101224.75
2024-02-05T14:37:22.978Z,101230.22
2024-02-05T14:39:50.826Z,101219.88
2024-02-05T14:42:18.628Z,101220.56
2024-02-05T14:44:46.637Z,101215.25
2024-02-05T14:47:14.579Z,101232.91
2024-02-05T14:49:43.748Z,101216.91
2024-02-05T14:52:11.614Z,101213.69
2024-02-05T14:54:39.585Z,101218.31
2024-02-05T14:57:07.557Z,101210.22
2024-02-05T14:59:35.423Z,101213.78
2024-02-05T15:02:03.643Z,101212.75
2024-02-05T15:04:31.962Z,101225.97
2024-02-05T15:07:01.414Z,101209.47
2024-02-05T15:09:29.245Z,101216.69
2024-02-05T15:11:57.043Z,101217.88
2024-02-05T15:14:25.637Z,101209.16
2024-02-05T15:16:53.387Z,101217.94
2024-02-05T15:19:21.454Z,101218.09
2024-02-05T15:21:49.421Z,101212.44
2024-02-05T15:24:18.750Z,101206.41
2024-02-05T15:26:47.332Z,101202.94
2024-02-05T15:29:15.849Z,101209.81
2024-02-05T15:31:44.646Z,101207.44
2024-02-05T15:34:13.063Z,101216.69
2024-02-05T15:36:41.494Z,101209.25
2024-02-05T15:39:12.066Z,101192.75
2024-02-05T15:41:41.303Z,101208.25
2024-02-05T15:44:09.256Z,101209.75
2024-02-05T15:46:37.081Z,101210.78
2024-02-05T15:49:05.309Z,101195.00
2024-02-05T15:51:33.234Z,101203.50
2024-02-05T15:54:01.479Z,101195.97
2024-02-05T15:56:36.604Z,101187.75
2024-02-05T15:59:09.070Z,101170.78
2024-02-05T16:01:40.520Z,101181.25
2024-02-05T16:04:09.215Z,101197.75
2024-02-05T16:06:37.192Z,101190.16
2024-02-05T16:09:07.149Z,101188.09
2024-02-05T16:11:35.786Z,101189.81
2024-02-05T16:14:04.996Z,101189.97
2024-02-05T16:16:34.259Z,101177.72
2024-02-05T16:19:02.192Z,101165.44
2024-02-05T16:21:30.010Z,101187.94
2024-02-05T16:23:57.769Z,101184.34
2024-02-05T16:26:25.491Z,101181.28
2024-02-05T16:28:53.193Z,101168.84
2024-02-05T16:31:24.345Z,101167.75
2024-02-05T16:33:53.880Z,101165.53
2024-02-05T16:36:21.764Z,101174.78
2024-02-05T16:38:49.652Z,101160.34
2024-02-05T16:41:17.537Z,101157.03
2024-02-05T16:43:45.474Z,101159.41
2024-02-05T16:46:13.472Z,101160.72
2024-02-05T16:48:42.257Z,101160.53
2024-02-05T16:51:11.741Z,101157.50
2024-02-05T16:53:42.394Z,101160.22
2024-02-05T16:56:11.117Z,101153.94
2024-02-05T16:58:39.561Z,101151.84
2024-02-05T17:01:07.535Z,101138.63
2024-02-05T17:03:35.568Z,101158.75
2024-02-05T17:06:03.535Z,101141.94
2024-02-05T17:08:32.717Z,101149.69
2024-02-05T17:11:02.177Z,101142.97
2024-02-05T17:13:30.288Z,101142.13
2024-02-05T17:15:58.514Z,101138.16
2024-02-05T17:18:26.397Z,101135.09
2024-02-05T17:20:54.285Z,101141.44
2024-02-05T17:23:22.799Z,101129.44
2024-02-05T17:25:52.277Z,101137.53
2024-02-05T17:28:20.073Z,101129.63
2024-02-05T17:30:48.091Z,101121.72
2024-02-05T17:33:17.073Z,101112.25
2024-02-05T17:35:45.359Z,101125.19
2024-02-05T17:38:13.219Z,101113.97
2024-02-05T17:40:41.053Z,101102.97
2024-02-05T17:43:09.205Z,101114.00
2024-02-05T17:45:37.001Z,101124.34
2024-02-05T17:48:05.044Z,101106.63
2024-02-05T17:50:34.410Z,101117.44
2024-02-05T17:53:03.189Z,101112.81
2024-02-05T17:55:31.272Z,101117.63
2024-02-05T17:57:59.412Z,101100.75
2024-02-05T18:00:28.865Z,101101.13
2024-02-05T18:02:57.053Z,101107.31
2024-02-05T18:05:25.334Z,101098.16
2024-02-05T18:07:53.208Z,101095.44
2024-02-05T18:10:21.045Z,101093.56
2024-02-05T18:12:49.040Z,101095.09
2024-02-05T18:15:16.827Z,101087.00
2024-02-05T18:17:46.100Z,101089.06
2024-02-05T18:20:14.426Z,101091.13
2024-02-05T18:22:42.624Z,101089.91
2024-02-05T18:25:10.743Z,101081.84
2024-02-05T18:27:38.674Z,101086.66
2024-02-05T18:30:08.321Z,101088.22
2024-02-05T18:32:36.161Z,101083.56
2024-02-05T18:35:06.159Z,101089.25
2024-02-05T18:37:35.332Z,101081.00
2024-02-05T18:40:04.835Z,101074.97
2024-02-05T18:42:32.877Z,101065.66
2024-02-05T18:45:00.777Z,101072.75
2024-02-05T18:47:28.880Z,101062.59
2024-02-05T18:49:58.090Z,101071.88
2024-02-05T18:52:27.444Z,101044.19
2024-02-05T18:54:55.253Z,101045.91
2024-02-05T18:57:23.130Z,101056.56
2024-02-05T18:59:51.738Z,101047.44
2024-02-05T19:02:24.459Z,101037.50
2024-02-05T19:04:52.602Z,101044.53
2024-02-05T19:07:21.753Z,101035.41
2024-02-05T19:09:51.403Z,101032.50
2024-02-05T19:12:19.445Z,101031.81
2024-02-05T19:14:47.466Z,101034.56
2024-02-05T19:17:15.293Z,101017.38
2024-02-05T19:19:43.212Z,101016.16
2024-02-05T19:22:11.060Z,100999.69
2024-02-05T19:24:39.446Z,101024.44
2024-02-05T19:27:08.814Z,101002.06
2024-02-05T19:29:40.641Z,101015.13
2024-02-05T19:32:09.453Z,101008.78
2024-02-05T19:34:37.465Z,101001.03
2024-02-05T19:37:05.986Z,100999.47
2024-02-05T19:39:33.830Z,100996.22
2024-02-05T19:42:02.063Z,100998.44
2024-02-05T19:44:31.430Z,101007.59
2024-02-05T19:46:59.185Z,100997.25
2024-02-05T19:49:27.092Z,100990.38
2024-02-05T19:51:56.690Z,100986.59
2024-02-05T19:54:24.450Z,100989.19
2024-02-05T19:56:52.205Z,100988.50
2024-02-05T19:59:20.973Z,100982.63
2024-02-05T20:01:54.081Z,100976.97
2024-02-05T20:04:22.309Z,100964.59
2024-02-05T20:06:51.095Z,100975.09
2024-02-05T20:09:19.890Z,100973.88
2024-02-05T20:11:48.041Z,100979.72
2024-02-05T20:14:16.391Z,100966.13
2024-02-05T20:16:44.382Z,100960.81
2024-02-05T20:19:14.101Z,100960.13
2024-02-05T20:21:41.857Z,100963.72
2024-02-05T20:24:10.311Z,100950.84
2024-02-05T20:26:38.052Z,100951.19
2024-02-05T20:29:06.030Z,100954.25
2024-02-05T20:31:35.342Z,100955.47
2024-02-05T20:34:03.579Z,100956.50
2024-02-05T20:36:33.035Z,100943.97
2024-02-05T20:39:00.921Z,100932.44
2024-02-05T20:41:28.844Z,100939.00
2024-02-05T20:43:56.798Z,100929.38
2024-02-05T20:46:24.817Z,100929.38
2024-02-05T20:48:52.894Z,100926.63
2024-02-05T20:51:20.948Z,100937.09
2024-02-05T20:53:50.288Z,100921.28
2024-02-05T20:56:20.579Z,100933.66
2024-02-05T20:58:48.525Z,100930.56
2024-02-05T21:01:17.181Z,100927.97
2024-02-05T21:03:45.271Z,100915.38
2024-02-05T21:06:13.262Z,100910.41
2024-02-05T21:08:41.085Z,100928.28
2024-02-05T21:11:10.606Z,100922.59
2024-02-05T21:13:38.405Z,100910.28
2024-02-05T21:16:07.132Z,100918.03
2024-02-05T21:18:35.408Z,100912.31
2024-02-05T21:21:03.762Z,100910.56
2024-02-05T21:23:31.709Z,100909.56
2024-02-05T21:25:59.661Z,100904.78
2024-02-05T21:28:29.104Z,100912.84
2024-02-05T21:30:57.117Z,100902.84
2024-02-05T21:33:25.565Z,100907.50
2024-02-05T21:35:53.771Z,100893.94
2024-02-05T21:38:21.573Z,100898.78
2024-02-05T21:40:49.737Z,100896.22
2024-02-05T21:43:17.745Z,100892.06
2024-02-05T21:45:46.808Z,100893.09
2024-02-05T21:48:14.781Z,100903.09
2024-02-05T21:50:42.891Z,100901.00
2024-02-05T21:53:10.775Z,100893.63
2024-02-05T21:55:38.795Z,100898.03
2024-02-05T21:58:06.666Z,100900.34
2024-02-05T22:00:34.976Z,100901.69
2024-02-05T22:03:04.378Z,100894.09
2024-02-05T22:05:32.641Z,100900.13
2024-02-05T22:08:00.795Z,100898.78
2024-02-05T22:10:28.578Z,100897.88
2024-02-05T22:12:56.546Z,100888.97
2024-02-05T22:15:24.373Z,100893.75
2024-02-05T22:17:52.388Z,100898.75
2024-02-05T22:20:21.950Z,100903.09
2024-02-05T22:22:49.780Z,100895.00
2024-02-05T22:25:18.557Z,100886.56
2024-02-05T22:27:46.488Z,100898.06
2024-02-05T22:30:15.147Z,100890.16
2024-02-05T22:32:43.070Z,100895.50
2024-02-05T22:35:11.056Z,100892.72
2024-02-05T22:37:40.370Z,100896.00
2024-02-05T22:40:11.148Z,100890.31
2024-02-05T22:42:39.218Z,100877.13
2024-02-05T22:45:08.420Z,100879.50
2024-02-05T22:47:36.391Z,100891.50
2024-02-05T22:50:05.185Z,100882.59
2024-02-05T22:52:35.403Z,100872.63
2024-02-05T22:55:05.841Z,100862.16
2024-02-05T22:57:34.368Z,100864.75
2024-02-05T23:00:02.994Z,100865.63
2024-02-05T23:02:31.930Z,100862.69
2024-02-05T23:04:59.852Z,100850.16
2024-02-05T23:07:27.844Z,100849.81
2024-02-05T23:09:55.635Z,100843.09
2024-02-05T23:12:25.151Z,100856.72
2024-02-05T23:14:52.797Z,100850.34
2024-02-05T23:17:20.517Z,100850.34
2024-02-05T23:19:48.406Z,100845.72
2024-02-05T23:22:16.414Z,100844.31
2024-02-05T23:24:44.693Z,100842.75
2024-02-05T23:27:12.639Z,100836.94
2024-02-05T23:29:41.952Z,100829.38
2024-02-05T23:32:10.430Z,100834.69
2024-02-05T23:34:38.794Z,100833.00
2024-02-05T23:37:07.347Z,100832.31
2024-02-05T23:39:35.113Z,100832.63
2024-02-05T23:42:02.915Z,100825.59
2024-02-05T23:44:31.971Z,100835.03
2024-02-05T23:47:01.036Z,100820.44
2024-02-05T23:49:28.828Z,100830.72
2024-02-05T23:51:56.760Z,100828.66
2024-02-05T23:54:24.500Z,100826.75
2024-02-05T23:56:52.468Z,100823.69
2024-02-05T23:59:20.989Z,100816.13
